createdAt,value
2023-03-26T00:02:42.681Z,3.60
2023-03-26T00:07:44.740Z,2.67
2023-03-26T00:12:47.213Z,2.58
2023-03-26T00:17:49.480Z,3.17
2023-03-26T00:22:51.700Z,2.50
2023-03-26T00:27:54.165Z,4.18
2023-03-26T00:32:55.990Z,2.60
2023-03-26T00:37:58.157Z,2.58
2023-03-26T00:42:59.962Z,3.22
2023-03-26T00:48:02.839Z,2.85
2023-03-26T00:53:05.308Z,2.78
2023-03-26T00:58:07.854Z,2.47
2023-03-26T01:03:26.621Z,3.05
2023-03-26T01:08:39.579Z,2.67
2023-03-26T01:13:54.304Z,3.03
2023-03-26T01:18:56.477Z,4.07
2023-03-26T01:24:02.259Z,3.08
2023-03-26T01:29:05.759Z,3.47
2023-03-26T01:34:18.621Z,2.25
2023-03-26T01:39:38.219Z,2.30
2023-03-26T01:44:55.371Z,2.70
2023-03-26T01:49:57.657Z,2.63
2023-03-26T01:54:59.970Z,2.83
2023-03-26T02:00:01.789Z,1.80
2023-03-26T02:05:20.686Z,2.65
2023-03-26T02:10:29.636Z,2.53
2023-03-26T02:15:31.553Z,3.20
2023-03-26T02:20:33.570Z,3.22
2023-03-26T02:25:35.297Z,2.15
2023-03-26T02:30:37.428Z,3.17
2023-03-26T02:35:39.307Z,2.53
2023-03-26T02:40:42.099Z,1.98
2023-03-26T02:45:44.271Z,2.60
2023-03-26T02:51:14.287Z,2.85
2023-03-26T02:56:28.930Z,2.33
2023-03-26T03:01:58.133Z,2.70
2023-03-26T03:06:59.817Z,2.10
2023-03-26T03:12:02.190Z,2.53
2023-03-26T03:17:03.987Z,1.67
2023-03-26T03:22:06.094Z,2.05
2023-03-26T03:27:10.127Z,3.78
2023-03-26T03:32:16.974Z,2.72
2023-03-26T03:37:21.990Z,2.60
2023-03-26T03:42:27.724Z,2.72
2023-03-26T03:47:32.581Z,2.63
2023-03-26T03:52:34.809Z,3.35
2023-03-26T03:57:36.642Z,2.17
2023-03-26T04:02:43.459Z,2.80
2023-03-26T04:07:45.902Z,2.33
2023-03-26T04:13:07.877Z,3.92
2023-03-26T04:18:27.891Z,3.13
2023-03-26T04:23:32.462Z,2.28
2023-03-26T04:28:50.379Z,2.55
2023-03-26T04:34:04.078Z,2.28
2023-03-26T04:39:07.073Z,2.30
2023-03-26T04:44:27.729Z,2.78
2023-03-26T04:49:35.857Z,2.20
2023-03-26T04:54:38.777Z,2.92
2023-03-26T04:59:45.678Z,3.95
2023-03-26T05:04:49.257Z,2.55
2023-03-26T05:09:52.395Z,2.38
2023-03-26T05:15:17.685Z,3.17
2023-03-26T05:20:41.090Z,3.45
2023-03-26T05:25:45.113Z,2.95
2023-03-26T05:30:53.111Z,3.08
2023-03-26T05:36:03.223Z,4.07
2023-03-26T05:41:09.557Z,2.83
2023-03-26T05:46:15.974Z,2.80
2023-03-26T05:51:18.572Z,2.63
2023-03-26T05:56:32.955Z,3.47
2023-03-26T06:01:53.175Z,3.22
2023-03-26T06:07:14.162Z,2.20
2023-03-26T06:12:20.402Z,2.83
2023-03-26T06:17:22.715Z,4.97
2023-03-26T06:22:49.018Z,2.92
2023-03-26T06:27:55.626Z,3.00
2023-03-26T06:33:09.564Z,3.05
2023-03-26T06:38:18.529Z,3.67
2023-03-26T06:43:20.876Z,3.15
2023-03-26T06:48:42.937Z,3.35
2023-03-26T06:54:03.541Z,3.28
2023-03-26T06:59:34.672Z,2.95
2023-03-26T07:05:03.466Z,2.80
2023-03-26T07:10:23.958Z,4.00
2023-03-26T07:15:46.153Z,2.55
2023-03-26T07:20:57.354Z,3.92
2023-03-26T07:26:23.158Z,3.40
2023-03-26T07:31:59.503Z,3.47
2023-03-26T07:37:32.194Z,3.40
2023-03-26T07:43:30.754Z,3.75
2023-03-26T07:48:46.047Z,3.35
2023-03-26T07:54:07.268Z,4.05
2023-03-26T07:59:53.082Z,4.35
2023-03-26T08:05:31.145Z,4.28
2023-03-26T08:11:31.422Z,3.88
2023-03-26T08:17:31.260Z,4.70
2023-03-26T08:22:42.030Z,3.42
2023-03-26T08:27:55.645Z,4.63
2023-03-26T08:33:12.925Z,3.55
2023-03-26T08:38:16.977Z,4.18
2023-03-26T08:43:46.638Z,5.32
2023-03-26T08:49:29.764Z,3.78
2023-03-26T08:54:47.220Z,4.00
2023-03-26T09:00:16.720Z,4.05
2023-03-26T09:05:43.175Z,2.63
2023-03-26T09:10:52.463Z,2.30
2023-03-26T09:16:29.466Z,2.40
2023-03-26T09:21:43.230Z,2.30
2023-03-26T09:27:08.690Z,1.77
2023-03-26T09:32:41.516Z,1.60
2023-03-26T09:37:58.631Z,1.88
2023-03-26T09:43:32.966Z,1.77
2023-03-26T09:48:42.877Z,2.00
2023-03-26T09:54:09.444Z,3.05
2023-03-26T09:59:44.863Z,2.33
2023-03-26T10:05:17.361Z,3.05
2023-03-26T10:11:16.506Z,2.75
2023-03-26T10:17:11.778Z,2.25
2023-03-26T10:22:44.227Z,2.85
2023-03-26T10:28:09.734Z,1.45
2023-03-26T10:33:54.509Z,1.42
2023-03-26T10:39:35.878Z,1.40
2023-03-26T10:44:56.001Z,1.50
2023-03-26T10:50:25.281Z,1.15
2023-03-26T10:55:40.806Z,1.73
2023-03-26T11:00:53.431Z,1.73
2023-03-26T11:06:23.365Z,2.22
2023-03-26T11:11:40.298Z,1.52
2023-03-26T11:22:04.950Z,1.52
2023-03-26T11:27:49.037Z,1.90
2023-03-26T11:33:16.847Z,1.52
2023-03-26T11:38:28.607Z,1.90
2023-03-26T11:43:35.384Z,2.13
2023-03-26T11:48:40.339Z,1.85
2023-03-26T11:53:41.871Z,2.40
2023-03-26T11:58:51.001Z,1.90
2023-03-26T12:04:11.180Z,1.40
2023-03-26T12:09:20.043Z,0.20
2023-03-26T12:14:27.098Z,0.10
2023-03-26T12:19:35.295Z,0.20
2023-03-26T12:24:36.990Z,0.30
2023-03-26T12:29:38.532Z,0.30
2023-03-26T12:34:42.252Z,0.30
2023-03-26T12:40:08.609Z,0.30
2023-03-26T12:45:06.735Z,0.50
2023-03-26T12:50:13.716Z,0.50
2023-03-26T12:55:35.777Z,0.32
2023-03-26T13:01:10.825Z,0.50
2023-03-26T13:07:04.992Z,0.40
2023-03-26T13:12:34.170Z,0.75
2023-03-26T13:18:07.058Z,0.60
2023-03-26T13:23:22.473Z,0.52
2023-03-26T13:29:02.723Z,3.50
2023-03-26T13:34:25.833Z,4.00
2023-03-26T13:39:51.843Z,0.95
2023-03-26T13:45:18.273Z,1.33
2023-03-26T13:50:25.656Z,0.93
2023-03-26T13:55:45.852Z,1.23
2023-03-26T14:00:55.012Z,5.18
2023-03-26T14:06:04.896Z,1.63
2023-03-26T14:11:22.165Z,3.55
2023-03-26T14:16:30.417Z,2.40
2023-03-26T14:21:56.611Z,2.60
2023-03-26T14:27:01.246Z,7.17
2023-03-26T14:32:14.710Z,9.20
2023-03-26T14:38:13.654Z,3.38
2023-03-26T14:43:23.909Z,10.40
2023-03-26T14:48:41.101Z,10.38
2023-03-26T14:53:48.308Z,5.50
2023-03-26T14:59:20.982Z,9.40
2023-03-26T15:04:56.527Z,5.32
2023-03-26T15:10:14.193Z,4.35
2023-03-26T15:15:53.996Z,4.95
2023-03-26T15:21:15.261Z,1.80
2023-03-26T15:26:28.996Z,1.90
2023-03-26T15:32:04.787Z,5.47
2023-03-26T15:37:28.731Z,2.08
2023-03-26T15:42:43.565Z,3.25
2023-03-26T15:48:11.361Z,1.58
2023-03-26T15:53:19.594Z,1.10
2023-03-26T15:58:49.841Z,0.75
2023-03-26T16:03:57.251Z,0.68
2023-03-26T16:09:25.316Z,0.40
2023-03-26T16:14:36.179Z,0.70
2023-03-26T16:19:37.909Z,3.08
2023-03-26T16:25:26.903Z,0.95
2023-03-26T16:30:32.556Z,1.67
2023-03-26T16:35:52.596Z,2.43
2023-03-26T16:41:00.139Z,5.20
2023-03-26T16:46:27.969Z,7.53
2023-03-26T16:51:42.760Z,3.55
2023-03-26T16:57:05.607Z,8.52
2023-03-26T17:02:31.908Z,6.97
2023-03-26T17:07:47.737Z,4.00
2023-03-26T17:13:01.206Z,4.53
2023-03-26T17:18:21.304Z,1.73
2023-03-26T17:24:01.912Z,3.65
2023-03-26T17:29:18.835Z,2.50
2023-03-26T17:34:38.469Z,2.08
2023-03-26T17:39:39.960Z,2.22
2023-03-26T17:44:45.825Z,1.58
2023-03-26T17:49:51.169Z,2.93
2023-03-26T17:54:55.943Z,2.63
2023-03-26T17:59:59.527Z,2.78
2023-03-26T18:05:03.485Z,3.33
2023-03-26T18:10:35.712Z,2.60
2023-03-26T18:15:57.309Z,3.65
2023-03-26T18:21:02.455Z,2.42
2023-03-26T18:26:15.805Z,4.50
2023-03-26T18:31:25.532Z,3.30
2023-03-26T18:36:27.718Z,5.88
2023-03-26T18:41:34.678Z,6.20
2023-03-26T18:46:36.585Z,8.10
2023-03-26T18:51:46.384Z,7.20
2023-03-26T18:56:55.918Z,6.97
2023-03-26T19:02:03.640Z,6.18
2023-03-26T19:07:11.630Z,7.15
2023-03-26T19:12:20.252Z,6.07
2023-03-26T19:17:23.728Z,5.40
2023-03-26T19:22:26.196Z,5.13
2023-03-26T19:27:28.222Z,4.20
2023-03-26T19:32:31.796Z,5.20
2023-03-26T19:37:33.442Z,4.97
2023-03-26T19:42:43.899Z,5.15
2023-03-26T19:47:54.735Z,5.60
2023-03-26T19:53:16.149Z,4.43
2023-03-26T19:58:18.866Z,4.05
2023-03-26T20:03:29.318Z,3.45
2023-03-26T20:08:31.069Z,3.55
2023-03-26T20:13:32.773Z,3.47
2023-03-26T20:18:34.982Z,2.60
2023-03-26T20:23:36.501Z,3.08
2023-03-26T20:28:47.322Z,3.60
2023-03-26T20:33:51.146Z,2.90
2023-03-26T20:38:52.908Z,2.88
2023-03-26T20:43:54.830Z,3.40
2023-03-26T20:48:56.948Z,2.67
2023-03-26T20:53:58.685Z,2.40
2023-03-26T20:59:10.635Z,3.28
2023-03-26T21:04:14.139Z,2.97
2023-03-26T21:09:19.526Z,3.28
2023-03-26T21:14:27.623Z,2.20
2023-03-26T21:19:29.886Z,3.28
2023-03-26T21:24:58.363Z,1.95
2023-03-26T21:30:00.313Z,2.13
2023-03-26T21:35:02.237Z,2.72
2023-03-26T21:40:04.553Z,2.28
2023-03-26T21:45:07.640Z,1.70
2023-03-26T21:50:12.523Z,2.33
2023-03-26T21:55:20.071Z,2.38
2023-03-26T22:00:30.781Z,2.22
2023-03-26T22:10:43.955Z,1.88
2023-03-26T22:15:45.683Z,2.78
2023-03-26T22:20:48.542Z,2.25
2023-03-26T22:25:50.190Z,1.90
2023-03-26T22:30:51.933Z,1.95
2023-03-26T22:35:55.560Z,2.33
2023-03-26T22:40:57.995Z,2.83
2023-03-26T22:45:59.772Z,1.52
2023-03-26T22:51:05.154Z,1.95
2023-03-26T22:56:07.389Z,1.80
2023-03-26T23:01:14.086Z,1.15
2023-03-26T23:11:19.758Z,2.13
2023-03-26T23:16:21.438Z,2.45
2023-03-26T23:21:23.196Z,1.88
2023-03-26T23:26:24.764Z,2.08
2023-03-26T23:31:26.832Z,2.22
2023-03-26T23:36:28.373Z,2.78
2023-03-26T23:41:29.932Z,1.77
2023-03-26T23:46:31.545Z,2.25
2023-03-26T23:51:33.524Z,2.28
2023-03-26T23:56:35.097Z,3.45
